sensor_id;sensor_type;location;lat;lon;timestamp;P1;durP1;ratioP1;P2;durP2;ratioP2
61505;SDS011;47366;51.916;4.574;2022-10-16T00:01:30;3.72;;;1.23;;
61505;SDS011;47366;51.916;4.574;2022-10-16T00:03:56;2.45;;;1.15;;
61505;SDS011;47366;51.916;4.574;2022-10-16T00:06:23;2.08;;;1.13;;
61505;SDS011;47366;51.916;4.574;2022-10-16T00:08:49;1.60;;;0.80;;
61505;SDS011;47366;51.916;4.574;2022-10-16T00:11:19;1.40;;;0.70;;
61505;SDS011;47366;51.916;4.574;2022-10-16T00:13:47;9.55;;;1.08;;
61505;SDS011;47366;51.916;4.574;2022-10-16T00:16:16;3.05;;;1.02;;
61505;SDS011;47366;51.916;4.574;2022-10-16T00:18:41;1.45;;;0.82;;
61505;SDS011;47366;51.916;4.574;2022-10-16T00:21:09;1.67;;;0.93;;
61505;SDS011;47366;51.916;4.574;2022-10-16T00:23:39;1.48;;;0.90;;
61505;SDS011;47366;51.916;4.574;2022-10-16T00:26:06;1.52;;;0.77;;
61505;SDS011;47366;51.916;4.574;2022-10-16T00:28:34;2.42;;;1.02;;
61505;SDS011;47366;51.916;4.574;2022-10-16T00:31:07;2.15;;;0.85;;
61505;SDS011;47366;51.916;4.574;2022-10-16T00:33:35;2.15;;;0.73;;
61505;SDS011;47366;51.916;4.574;2022-10-16T00:36:02;2.60;;;0.82;;
61505;SDS011;47366;51.916;4.574;2022-10-16T00:38:28;2.00;;;0.90;;
61505;SDS011;47366;51.916;4.574;2022-10-16T00:40:54;3.03;;;0.80;;
61505;SDS011;47366;51.916;4.574;2022-10-16T00:43:36;2.08;;;0.73;;
61505;SDS011;47366;51.916;4.574;2022-10-16T00:46:03;4.07;;;0.70;;
61505;SDS011;47366;51.916;4.574;2022-10-16T00:48:34;2.67;;;1.15;;
61505;SDS011;47366;51.916;4.574;2022-10-16T00:50:59;1.80;;;0.73;;
61505;SDS011;47366;51.916;4.574;2022-10-16T00:53:25;1.80;;;0.90;;
61505;SDS011;47366;51.916;4.574;2022-10-16T00:55:51;3.67;;;1.00;;
61505;SDS011;47366;51.916;4.574;2022-10-16T00:58:17;1.52;;;0.93;;
61505;SDS011;47366;51.916;4.574;2022-10-16T01:00:42;1.25;;;0.80;;
61505;SDS011;47366;51.916;4.574;2022-10-16T01:03:24;2.70;;;0.95;;
61505;SDS011;47366;51.916;4.574;2022-10-16T01:05:51;1.77;;;0.80;;
61505;SDS011;47366;51.916;4.574;2022-10-16T01:08:31;4.03;;;0.88;;
61505;SDS011;47366;51.916;4.574;2022-10-16T01:11:09;2.33;;;0.93;;
61505;SDS011;47366;51.916;4.574;2022-10-16T01:13:46;1.83;;;0.88;;
61505;SDS011;47366;51.916;4.574;2022-10-16T01:16:17;2.03;;;1.20;;
61505;SDS011;47366;51.916;4.574;2022-10-16T01:18:57;1.50;;;0.80;;
61505;SDS011;47366;51.916;4.574;2022-10-16T01:21:38;4.35;;;0.70;;
61505;SDS011;47366;51.916;4.574;2022-10-16T01:27:01;1.85;;;0.90;;
61505;SDS011;47366;51.916;4.574;2022-10-16T01:35:10;2.08;;;0.93;;
61505;SDS011;47366;51.916;4.574;2022-10-16T01:37:53;3.97;;;1.58;;
61505;SDS011;47366;51.916;4.574;2022-10-16T01:40:28;1.60;;;1.02;;
61505;SDS011;47366;51.916;4.574;2022-10-16T01:45:51;1.90;;;0.85;;
61505;SDS011;47366;51.916;4.574;2022-10-16T01:48:18;1.10;;;0.65;;
61505;SDS011;47366;51.916;4.574;2022-10-16T01:50:50;2.10;;;1.00;;
61505;SDS011;47366;51.916;4.574;2022-10-16T01:53:20;4.15;;;1.02;;
61505;SDS011;47366;51.916;4.574;2022-10-16T01:55:48;2.33;;;1.17;;
61505;SDS011;47366;51.916;4.574;2022-10-16T01:58:17;7.10;;;1.20;;
61505;SDS011;47366;51.916;4.574;2022-10-16T02:00:43;3.08;;;1.27;;
61505;SDS011;47366;51.916;4.574;2022-10-16T02:03:12;2.45;;;1.15;;
61505;SDS011;47366;51.916;4.574;2022-10-16T02:05:49;2.05;;;0.98;;
61505;SDS011;47366;51.916;4.574;2022-10-16T02:08:17;2.25;;;1.20;;
61505;SDS011;47366;51.916;4.574;2022-10-16T02:10:44;1.23;;;0.88;;
61505;SDS011;47366;51.916;4.574;2022-10-16T02:15:56;1.58;;;0.90;;
61505;SDS011;47366;51.916;4.574;2022-10-16T02:18:21;1.40;;;1.05;;
61505;SDS011;47366;51.916;4.574;2022-10-16T02:20:51;4.53;;;1.38;;
61505;SDS011;47366;51.916;4.574;2022-10-16T02:23:24;2.33;;;1.25;;
61505;SDS011;47366;51.916;4.574;2022-10-16T02:26:06;1.83;;;1.00;;
61505;SDS011;47366;51.916;4.574;2022-10-16T02:28:36;1.75;;;1.00;;
61505;SDS011;47366;51.916;4.574;2022-10-16T02:31:11;2.45;;;1.05;;
61505;SDS011;47366;51.916;4.574;2022-10-16T02:33:40;4.07;;;1.50;;
61505;SDS011;47366;51.916;4.574;2022-10-16T02:36:08;5.45;;;1.33;;
61505;SDS011;47366;51.916;4.574;2022-10-16T02:38:33;2.58;;;1.30;;
61505;SDS011;47366;51.916;4.574;2022-10-16T02:40:59;1.65;;;1.00;;
61505;SDS011;47366;51.916;4.574;2022-10-16T02:43:25;2.05;;;1.33;;
61505;SDS011;47366;51.916;4.574;2022-10-16T02:45:51;4.20;;;1.30;;
61505;SDS011;47366;51.916;4.574;2022-10-16T02:48:16;3.17;;;1.17;;
61505;SDS011;47366;51.916;4.574;2022-10-16T02:50:41;2.13;;;1.08;;
61505;SDS011;47366;51.916;4.574;2022-10-16T02:53:07;4.32;;;1.10;;
61505;SDS011;47366;51.916;4.574;2022-10-16T02:55:32;1.48;;;1.02;;
61505;SDS011;47366;51.916;4.574;2022-10-16T02:57:57;2.00;;;1.05;;
61505;SDS011;47366;51.916;4.574;2022-10-16T03:00:23;2.45;;;1.00;;
61505;SDS011;47366;51.916;4.574;2022-10-16T03:02:49;2.35;;;0.93;;
61505;SDS011;47366;51.916;4.574;2022-10-16T03:05:14;6.93;;;1.80;;
61505;SDS011;47366;51.916;4.574;2022-10-16T03:07:40;2.58;;;1.30;;
61505;SDS011;47366;51.916;4.574;2022-10-16T03:10:05;1.45;;;0.85;;
61505;SDS011;47366;51.916;4.574;2022-10-16T03:12:31;3.90;;;1.30;;
61505;SDS011;47366;51.916;4.574;2022-10-16T03:14:57;1.33;;;0.85;;
61505;SDS011;47366;51.916;4.574;2022-10-16T03:17:22;2.63;;;0.82;;
61505;SDS011;47366;51.916;4.574;2022-10-16T03:19:48;2.75;;;0.90;;
61505;SDS011;47366;51.916;4.574;2022-10-16T03:22:14;2.90;;;0.77;;
61505;SDS011;47366;51.916;4.574;2022-10-16T03:24:39;4.25;;;1.10;;
61505;SDS011;47366;51.916;4.574;2022-10-16T03:27:04;2.13;;;0.85;;
61505;SDS011;47366;51.916;4.574;2022-10-16T03:29:30;1.13;;;0.63;;
61505;SDS011;47366;51.916;4.574;2022-10-16T03:31:57;1.20;;;0.82;;
61505;SDS011;47366;51.916;4.574;2022-10-16T03:34:22;1.80;;;0.70;;
61505;SDS011;47366;51.916;4.574;2022-10-16T03:36:47;1.80;;;1.10;;
61505;SDS011;47366;51.916;4.574;2022-10-16T03:39:13;4.70;;;1.05;;
61505;SDS011;47366;51.916;4.574;2022-10-16T03:41:38;1.95;;;1.00;;
61505;SDS011;47366;51.916;4.574;2022-10-16T03:44:03;4.20;;;0.77;;
61505;SDS011;47366;51.916;4.574;2022-10-16T03:46:29;1.90;;;0.63;;
61505;SDS011;47366;51.916;4.574;2022-10-16T03:48:54;2.45;;;0.88;;
61505;SDS011;47366;51.916;4.574;2022-10-16T03:51:19;1.23;;;0.70;;
61505;SDS011;47366;51.916;4.574;2022-10-16T03:53:45;3.70;;;0.90;;
61505;SDS011;47366;51.916;4.574;2022-10-16T03:56:10;3.13;;;0.95;;
61505;SDS011;47366;51.916;4.574;2022-10-16T03:58:35;1.63;;;0.88;;
61505;SDS011;47366;51.916;4.574;2022-10-16T04:01:00;3.63;;;0.90;;
61505;SDS011;47366;51.916;4.574;2022-10-16T04:03:26;0.85;;;0.63;;
61505;SDS011;47366;51.916;4.574;2022-10-16T04:05:51;2.05;;;0.80;;
61505;SDS011;47366;51.916;4.574;2022-10-16T04:08:17;1.30;;;0.55;;
61505;SDS011;47366;51.916;4.574;2022-10-16T04:10:43;1.10;;;0.77;;
61505;SDS011;47366;51.916;4.574;2022-10-16T04:13:08;0.90;;;0.70;;
61505;SDS011;47366;51.916;4.574;2022-10-16T04:15:34;1.50;;;0.98;;
61505;SDS011;47366;51.916;4.574;2022-10-16T04:17:59;1.63;;;0.73;;
61505;SDS011;47366;51.916;4.574;2022-10-16T04:20:24;2.55;;;0.90;;
61505;SDS011;47366;51.916;4.574;2022-10-16T04:22:50;1.13;;;0.73;;
61505;SDS011;47366;51.916;4.574;2022-10-16T04:25:15;1.10;;;0.77;;
61505;SDS011;47366;51.916;4.574;2022-10-16T04:27:41;0.32;;;0.32;;
61505;SDS011;47366;51.916;4.574;2022-10-16T04:30:06;1.63;;;0.90;;
61505;SDS011;47366;51.916;4.574;2022-10-16T04:32:32;1.85;;;0.80;;
61505;SDS011;47366;51.916;4.574;2022-10-16T04:34:57;3.63;;;0.85;;
61505;SDS011;47366;51.916;4.574;2022-10-16T04:37:23;2.35;;;0.65;;
61505;SDS011;47366;51.916;4.574;2022-10-16T04:39:52;3.08;;;0.80;;
61505;SDS011;47366;51.916;4.574;2022-10-16T04:42:18;1.20;;;0.80;;
61505;SDS011;47366;51.916;4.574;2022-10-16T04:44:44;2.33;;;0.80;;
61505;SDS011;47366;51.916;4.574;2022-10-16T04:47:10;1.85;;;0.55;;
61505;SDS011;47366;51.916;4.574;2022-10-16T04:49:35;2.47;;;0.90;;
61505;SDS011;47366;51.916;4.574;2022-10-16T04:52:00;4.55;;;1.00;;
61505;SDS011;47366;51.916;4.574;2022-10-16T04:54:26;1.77;;;0.90;;
61505;SDS011;47366;51.916;4.574;2022-10-16T04:56:51;2.10;;;0.80;;
61505;SDS011;47366;51.916;4.574;2022-10-16T04:59:17;1.13;;;0.80;;
61505;SDS011;47366;51.916;4.574;2022-10-16T05:01:44;3.05;;;1.00;;
61505;SDS011;47366;51.916;4.574;2022-10-16T05:04:10;1.23;;;0.85;;
61505;SDS011;47366;51.916;4.574;2022-10-16T05:06:35;1.92;;;0.70;;
61505;SDS011;47366;51.916;4.574;2022-10-16T05:09:02;2.70;;;0.77;;
61505;SDS011;47366;51.916;4.574;2022-10-16T05:11:27;0.85;;;0.50;;
61505;SDS011;47366;51.916;4.574;2022-10-16T05:13:53;2.85;;;1.20;;
61505;SDS011;47366;51.916;4.574;2022-10-16T05:16:18;3.17;;;1.30;;
61505;SDS011;47366;51.916;4.574;2022-10-16T05:18:43;1.13;;;0.70;;
61505;SDS011;47366;51.916;4.574;2022-10-16T05:21:08;1.65;;;0.82;;
61505;SDS011;47366;51.916;4.574;2022-10-16T05:23:34;2.03;;;1.20;;
61505;SDS011;47366;51.916;4.574;2022-10-16T05:25:59;1.00;;;0.75;;
61505;SDS011;47366;51.916;4.574;2022-10-16T05:28:25;4.63;;;1.13;;
61505;SDS011;47366;51.916;4.574;2022-10-16T05:30:51;2.35;;;0.73;;
61505;SDS011;47366;51.916;4.574;2022-10-16T05:33:19;3.15;;;1.00;;
61505;SDS011;47366;51.916;4.574;2022-10-16T05:35:45;2.35;;;0.98;;
61505;SDS011;47366;51.916;4.574;2022-10-16T05:38:10;2.03;;;1.10;;
61505;SDS011;47366;51.916;4.574;2022-10-16T05:40:35;1.35;;;0.80;;
61505;SDS011;47366;51.916;4.574;2022-10-16T05:43:00;1.30;;;0.80;;
61505;SDS011;47366;51.916;4.574;2022-10-16T05:45:26;2.78;;;0.88;;
61505;SDS011;47366;51.916;4.574;2022-10-16T05:47:51;1.35;;;0.88;;
61505;SDS011;47366;51.916;4.574;2022-10-16T05:50:16;1.10;;;0.65;;
61505;SDS011;47366;51.916;4.574;2022-10-16T05:52:42;1.63;;;0.73;;
61505;SDS011;47366;51.916;4.574;2022-10-16T05:55:07;2.53;;;0.90;;
61505;SDS011;47366;51.916;4.574;2022-10-16T05:57:33;1.77;;;1.00;;
61505;SDS011;47366;51.916;4.574;2022-10-16T05:59:58;3.85;;;1.05;;
61505;SDS011;47366;51.916;4.574;2022-10-16T06:02:23;2.53;;;0.73;;
61505;SDS011;47366;51.916;4.574;2022-10-16T06:04:48;2.60;;;0.98;;
61505;SDS011;47366;51.916;4.574;2022-10-16T06:07:14;3.30;;;1.08;;
61505;SDS011;47366;51.916;4.574;2022-10-16T06:09:39;1.15;;;0.68;;
61505;SDS011;47366;51.916;4.574;2022-10-16T06:12:04;1.08;;;0.50;;
61505;SDS011;47366;51.916;4.574;2022-10-16T06:14:30;1.52;;;0.65;;
61505;SDS011;47366;51.916;4.574;2022-10-16T06:16:55;2.38;;;0.55;;
61505;SDS011;47366;51.916;4.574;2022-10-16T06:19:20;1.38;;;0.40;;
61505;SDS011;47366;51.916;4.574;2022-10-16T06:21:46;1.05;;;0.50;;
61505;SDS011;47366;51.916;4.574;2022-10-16T06:24:11;1.50;;;0.50;;
61505;SDS011;47366;51.916;4.574;2022-10-16T06:26:37;3.80;;;0.47;;
61505;SDS011;47366;51.916;4.574;2022-10-16T06:29:03;1.02;;;0.35;;
61505;SDS011;47366;51.916;4.574;2022-10-16T06:31:28;1.75;;;0.40;;
61505;SDS011;47366;51.916;4.574;2022-10-16T06:33:56;1.35;;;0.52;;
61505;SDS011;47366;51.916;4.574;2022-10-16T06:36:22;2.60;;;0.68;;
61505;SDS011;47366;51.916;4.574;2022-10-16T06:38:47;2.20;;;0.93;;
61505;SDS011;47366;51.916;4.574;2022-10-16T06:41:14;0.90;;;0.65;;
61505;SDS011;47366;51.916;4.574;2022-10-16T06:43:41;3.70;;;0.63;;
61505;SDS011;47366;51.916;4.574;2022-10-16T06:46:09;1.20;;;0.73;;
61505;SDS011;47366;51.916;4.574;2022-10-16T06:48:36;1.55;;;0.63;;
61505;SDS011;47366;51.916;4.574;2022-10-16T06:51:12;2.38;;;0.70;;
61505;SDS011;47366;51.916;4.574;2022-10-16T06:53:45;4.53;;;1.10;;
61505;SDS011;47366;51.916;4.574;2022-10-16T06:56:23;0.75;;;0.47;;
61505;SDS011;47366;51.916;4.574;2022-10-16T06:58:50;1.77;;;1.08;;
61505;SDS011;47366;51.916;4.574;2022-10-16T07:01:18;2.22;;;0.80;;
61505;SDS011;47366;51.916;4.574;2022-10-16T07:03:45;1.23;;;0.57;;
61505;SDS011;47366;51.916;4.574;2022-10-16T07:06:13;0.93;;;0.63;;
61505;SDS011;47366;51.916;4.574;2022-10-16T07:08:44;4.57;;;1.00;;
61505;SDS011;47366;51.916;4.574;2022-10-16T07:11:14;1.33;;;0.75;;
61505;SDS011;47366;51.916;4.574;2022-10-16T07:13:41;1.58;;;0.68;;
61505;SDS011;47366;51.916;4.574;2022-10-16T07:16:09;1.08;;;0.85;;
61505;SDS011;47366;51.916;4.574;2022-10-16T07:18:36;1.83;;;0.88;;
61505;SDS011;47366;51.916;4.574;2022-10-16T07:21:14;4.20;;;1.17;;
61505;SDS011;47366;51.916;4.574;2022-10-16T07:23:41;4.47;;;0.77;;
61505;SDS011;47366;51.916;4.574;2022-10-16T07:26:07;3.40;;;1.00;;
61505;SDS011;47366;51.916;4.574;2022-10-16T07:28:34;3.45;;;1.20;;
61505;SDS011;47366;51.916;4.574;2022-10-16T07:31:03;5.70;;;0.63;;
61505;SDS011;47366;51.916;4.574;2022-10-16T07:33:33;1.33;;;0.80;;
61505;SDS011;47366;51.916;4.574;2022-10-16T07:35:59;2.47;;;0.98;;
61505;SDS011;47366;51.916;4.574;2022-10-16T07:38:25;0.47;;;0.43;;
61505;SDS011;47366;51.916;4.574;2022-10-16T07:40:59;2.22;;;1.55;;
61505;SDS011;47366;51.916;4.574;2022-10-16T07:43:29;5.10;;;1.15;;
61505;SDS011;47366;51.916;4.574;2022-10-16T07:45:55;2.15;;;0.75;;
61505;SDS011;47366;51.916;4.574;2022-10-16T07:48:21;3.67;;;1.15;;
61505;SDS011;47366;51.916;4.574;2022-10-16T07:50:47;1.65;;;0.73;;
61505;SDS011;47366;51.916;4.574;2022-10-16T07:53:13;1.40;;;0.82;;
61505;SDS011;47366;51.916;4.574;2022-10-16T07:55:39;1.13;;;0.55;;
61505;SDS011;47366;51.916;4.574;2022-10-16T07:58:05;2.70;;;1.05;;
61505;SDS011;47366;51.916;4.574;2022-10-16T08:00:31;1.70;;;0.70;;
61505;SDS011;47366;51.916;4.574;2022-10-16T08:02:57;1.10;;;0.68;;
61505;SDS011;47366;51.916;4.574;2022-10-16T08:05:29;6.28;;;0.85;;
61505;SDS011;47366;51.916;4.574;2022-10-16T08:07:57;3.20;;;0.90;;
61505;SDS011;47366;51.916;4.574;2022-10-16T08:10:23;3.75;;;0.80;;
61505;SDS011;47366;51.916;4.574;2022-10-16T08:12:51;2.70;;;0.88;;
61505;SDS011;47366;51.916;4.574;2022-10-16T08:15:17;1.08;;;0.47;;
61505;SDS011;47366;51.916;4.574;2022-10-16T08:17:43;1.42;;;0.50;;
61505;SDS011;47366;51.916;4.574;2022-10-16T08:20:09;0.80;;;0.35;;
61505;SDS011;47366;51.916;4.574;2022-10-16T08:22:36;1.35;;;0.77;;
61505;SDS011;47366;51.916;4.574;2022-10-16T08:25:01;1.60;;;0.75;;
61505;SDS011;47366;51.916;4.574;2022-10-16T08:27:33;1.80;;;0.80;;
61505;SDS011;47366;51.916;4.574;2022-10-16T08:29:58;6.20;;;1.05;;
61505;SDS011;47366;51.916;4.574;2022-10-16T08:32:23;1.60;;;0.80;;
61505;SDS011;47366;51.916;4.574;2022-10-16T08:34:49;5.15;;;0.88;;
61505;SDS011;47366;51.916;4.574;2022-10-16T08:37:14;2.92;;;0.40;;
61505;SDS011;47366;51.916;4.574;2022-10-16T08:39:39;2.42;;;0.80;;
61505;SDS011;47366;51.916;4.574;2022-10-16T08:47:46;2.13;;;1.27;;
61505;SDS011;47366;51.916;4.574;2022-10-16T08:50:22;5.22;;;1.00;;
61505;SDS011;47366;51.916;4.574;2022-10-16T08:52:49;1.77;;;0.55;;
61505;SDS011;47366;51.916;4.574;2022-10-16T08:55:23;3.47;;;0.65;;
61505;SDS011;47366;51.916;4.574;2022-10-16T08:58:09;0.57;;;0.57;;
61505;SDS011;47366;51.916;4.574;2022-10-16T09:00:37;2.13;;;0.93;;
61505;SDS011;47366;51.916;4.574;2022-10-16T09:11:41;5.53;;;0.93;;
61505;SDS011;47366;51.916;4.574;2022-10-16T09:14:28;1.73;;;0.75;;
61505;SDS011;47366;51.916;4.574;2022-10-16T09:17:04;4.95;;;0.88;;
61505;SDS011;47366;51.916;4.574;2022-10-16T09:19:50;7.25;;;1.33;;
61505;SDS011;47366;51.916;4.574;2022-10-16T09:22:21;5.97;;;1.38;;
61505;SDS011;47366;51.916;4.574;2022-10-16T09:24:51;3.42;;;1.20;;
61505;SDS011;47366;51.916;4.574;2022-10-16T09:27:17;5.88;;;1.50;;
61505;SDS011;47366;51.916;4.574;2022-10-16T09:29:42;2.58;;;1.25;;
61505;SDS011;47366;51.916;4.574;2022-10-16T09:32:14;3.67;;;1.00;;
61505;SDS011;47366;51.916;4.574;2022-10-16T09:34:52;5.85;;;1.35;;
61505;SDS011;47366;51.916;4.574;2022-10-16T09:37:22;5.40;;;1.02;;
61505;SDS011;47366;51.916;4.574;2022-10-16T09:39:50;4.32;;;1.08;;
61505;SDS011;47366;51.916;4.574;2022-10-16T09:42:33;1.70;;;0.90;;
61505;SDS011;47366;51.916;4.574;2022-10-16T09:45:01;7.20;;;1.40;;
61505;SDS011;47366;51.916;4.574;2022-10-16T09:47:29;9.98;;;1.02;;
61505;SDS011;47366;51.916;4.574;2022-10-16T09:50:00;6.45;;;1.40;;
61505;SDS011;47366;51.916;4.574;2022-10-16T09:52:31;0.82;;;0.57;;
61505;SDS011;47366;51.916;4.574;2022-10-16T09:55:01;5.15;;;1.23;;
61505;SDS011;47366;51.916;4.574;2022-10-16T09:57:37;5.60;;;1.00;;
61505;SDS011;47366;51.916;4.574;2022-10-16T10:00:15;8.68;;;1.25;;
61505;SDS011;47366;51.916;4.574;2022-10-16T10:02:42;6.25;;;1.40;;
61505;SDS011;47366;51.916;4.574;2022-10-16T10:05:17;4.32;;;1.08;;
61505;SDS011;47366;51.916;4.574;2022-10-16T10:07:52;6.32;;;1.17;;
61505;SDS011;47366;51.916;4.574;2022-10-16T10:10:22;3.03;;;0.85;;
61505;SDS011;47366;51.916;4.574;2022-10-16T10:12:52;6.50;;;1.02;;
61505;SDS011;47366;51.916;4.574;2022-10-16T10:15:18;7.43;;;1.83;;
61505;SDS011;47366;51.916;4.574;2022-10-16T10:17:55;5.15;;;0.93;;
61505;SDS011;47366;51.916;4.574;2022-10-16T10:22:52;6.95;;;1.02;;
61505;SDS011;47366;51.916;4.574;2022-10-16T10:27:57;6.70;;;1.92;;
61505;SDS011;47366;51.916;4.574;2022-10-16T10:38:53;4.82;;;1.00;;
61505;SDS011;47366;51.916;4.574;2022-10-16T10:46:41;5.95;;;1.08;;
61505;SDS011;47366;51.916;4.574;2022-10-16T11:05:52;1.77;;;0.73;;
61505;SDS011;47366;51.916;4.574;2022-10-16T11:08:37;6.43;;;0.88;;
61505;SDS011;47366;51.916;4.574;2022-10-16T11:16:40;9.68;;;1.35;;
61505;SDS011;47366;51.916;4.574;2022-10-16T11:21:47;7.97;;;1.30;;
61505;SDS011;47366;51.916;4.574;2022-10-16T11:24:22;8.57;;;1.20;;
61505;SDS011;47366;51.916;4.574;2022-10-16T11:27:06;1.95;;;0.60;;
61505;SDS011;47366;51.916;4.574;2022-10-16T11:29:35;10.25;;;1.05;;
61505;SDS011;47366;51.916;4.574;2022-10-16T11:32:22;4.35;;;0.98;;
61505;SDS011;47366;51.916;4.574;2022-10-16T11:34:55;3.58;;;0.88;;
61505;SDS011;47366;51.916;4.574;2022-10-16T11:37:32;6.30;;;1.10;;
61505;SDS011;47366;51.916;4.574;2022-10-16T11:40:05;4.97;;;1.52;;
61505;SDS011;47366;51.916;4.574;2022-10-16T11:42:46;4.68;;;0.98;;
61505;SDS011;47366;51.916;4.574;2022-10-16T11:47:57;2.90;;;0.90;;
61505;SDS011;47366;51.916;4.574;2022-10-16T11:50:36;3.13;;;1.00;;
61505;SDS011;47366;51.916;4.574;2022-10-16T11:55:52;5.30;;;0.95;;
61505;SDS011;47366;51.916;4.574;2022-10-16T11:58:31;8.00;;;0.90;;
61505;SDS011;47366;51.916;4.574;2022-10-16T12:03:40;4.47;;;0.70;;
61505;SDS011;47366;51.916;4.574;2022-10-16T12:06:14;3.10;;;0.57;;
61505;SDS011;47366;51.916;4.574;2022-10-16T12:08:51;5.43;;;0.90;;
61505;SDS011;47366;51.916;4.574;2022-10-16T12:16:37;5.70;;;0.85;;
61505;SDS011;47366;51.916;4.574;2022-10-16T12:19:10;3.30;;;0.57;;
61505;SDS011;47366;51.916;4.574;2022-10-16T12:21:38;6.28;;;1.10;;
61505;SDS011;47366;51.916;4.574;2022-10-16T12:24:04;1.50;;;0.50;;
61505;SDS011;47366;51.916;4.574;2022-10-16T12:26:34;5.07;;;0.65;;
61505;SDS011;47366;51.916;4.574;2022-10-16T12:29:38;3.42;;;0.50;;
61505;SDS011;47366;51.916;4.574;2022-10-16T12:32:29;6.35;;;1.08;;
61505;SDS011;47366;51.916;4.574;2022-10-16T12:34:57;4.93;;;1.13;;
61505;SDS011;47366;51.916;4.574;2022-10-16T12:37:24;3.17;;;0.63;;
61505;SDS011;47366;51.916;4.574;2022-10-16T12:39:53;3.03;;;0.57;;
61505;SDS011;47366;51.916;4.574;2022-10-16T12:44:48;6.35;;;1.00;;
61505;SDS011;47366;51.916;4.574;2022-10-16T12:49:54;8.00;;;1.00;;
61505;SDS011;47366;51.916;4.574;2022-10-16T12:52:24;5.75;;;1.38;;
61505;SDS011;47366;51.916;4.574;2022-10-16T12:54:50;3.90;;;0.93;;
61505;SDS011;47366;51.916;4.574;2022-10-16T13:05:33;8.13;;;1.10;;
61505;SDS011;47366;51.916;4.574;2022-10-16T13:11:05;5.40;;;0.82;;
61505;SDS011;47366;51.916;4.574;2022-10-16T13:13:46;6.00;;;1.10;;
61505;SDS011;47366;51.916;4.574;2022-10-16T13:19:35;4.78;;;0.98;;
61505;SDS011;47366;51.916;4.574;2022-10-16T13:24:56;1.38;;;0.68;;
61505;SDS011;47366;51.916;4.574;2022-10-16T13:30:13;2.78;;;0.70;;
61505;SDS011;47366;51.916;4.574;2022-10-16T13:32:49;4.45;;;1.00;;
61505;SDS011;47366;51.916;4.574;2022-10-16T13:35:27;5.78;;;0.88;;
61505;SDS011;47366;51.916;4.574;2022-10-16T13:40:52;6.10;;;1.08;;
61505;SDS011;47366;51.916;4.574;2022-10-16T13:43:19;3.70;;;0.70;;
61505;SDS011;47366;51.916;4.574;2022-10-16T13:46:04;4.20;;;0.95;;
61505;SDS011;47366;51.916;4.574;2022-10-16T13:48:31;3.10;;;0.60;;
61505;SDS011;47366;51.916;4.574;2022-10-16T13:51:02;1.98;;;0.82;;
61505;SDS011;47366;51.916;4.574;2022-10-16T13:53:46;4.28;;;0.68;;
61505;SDS011;47366;51.916;4.574;2022-10-16T13:56:15;4.28;;;0.88;;
61505;SDS011;47366;51.916;4.574;2022-10-16T13:58:42;3.95;;;0.90;;
61505;SDS011;47366;51.916;4.574;2022-10-16T14:03:45;2.67;;;0.70;;
61505;SDS011;47366;51.916;4.574;2022-10-16T14:06:13;4.28;;;0.98;;
61505;SDS011;47366;51.916;4.574;2022-10-16T14:08:42;3.65;;;0.90;;
61505;SDS011;47366;51.916;4.574;2022-10-16T14:11:10;5.15;;;0.65;;
61505;SDS011;47366;51.916;4.574;2022-10-16T14:13:39;2.35;;;0.60;;
61505;SDS011;47366;51.916;4.574;2022-10-16T14:16:15;7.72;;;1.00;;
61505;SDS011;47366;51.916;4.574;2022-10-16T14:19:00;4.70;;;0.88;;
61505;SDS011;47366;51.916;4.574;2022-10-16T14:21:27;5.50;;;0.75;;
61505;SDS011;47366;51.916;4.574;2022-10-16T14:23:53;8.90;;;1.10;;
61505;SDS011;47366;51.916;4.574;2022-10-16T14:26:20;2.53;;;0.88;;
61505;SDS011;47366;51.916;4.574;2022-10-16T14:28:49;6.15;;;0.98;;
61505;SDS011;47366;51.916;4.574;2022-10-16T14:31:33;8.75;;;1.50;;
61505;SDS011;47366;51.916;4.574;2022-10-16T14:34:01;2.95;;;0.95;;
61505;SDS011;47366;51.916;4.574;2022-10-16T14:36:26;15.88;;;1.33;;
61505;SDS011;47366;51.916;4.574;2022-10-16T14:39:19;4.28;;;1.10;;
61505;SDS011;47366;51.916;4.574;2022-10-16T14:41:47;5.55;;;1.10;;
61505;SDS011;47366;51.916;4.574;2022-10-16T14:44:14;6.82;;;0.90;;
61505;SDS011;47366;51.916;4.574;2022-10-16T14:46:42;7.78;;;1.08;;
61505;SDS011;47366;51.916;4.574;2022-10-16T14:51:35;5.27;;;0.80;;
61505;SDS011;47366;51.916;4.574;2022-10-16T14:54:00;3.03;;;0.98;;
61505;SDS011;47366;51.916;4.574;2022-10-16T14:56:30;3.00;;;0.70;;
61505;SDS011;47366;51.916;4.574;2022-10-16T14:59:08;6.68;;;0.85;;
61505;SDS011;47366;51.916;4.574;2022-10-16T15:01:42;4.90;;;1.17;;
61505;SDS011;47366;51.916;4.574;2022-10-16T15:04:09;10.25;;;1.15;;
61505;SDS011;47366;51.916;4.574;2022-10-16T15:06:37;6.03;;;1.08;;
61505;SDS011;47366;51.916;4.574;2022-10-16T15:09:04;4.38;;;0.88;;
61505;SDS011;47366;51.916;4.574;2022-10-16T15:11:29;8.50;;;1.48;;
61505;SDS011;47366;51.916;4.574;2022-10-16T15:13:57;4.25;;;1.20;;
61505;SDS011;47366;51.916;4.574;2022-10-16T15:16:22;4.30;;;1.23;;
61505;SDS011;47366;51.916;4.574;2022-10-16T15:18:48;10.00;;;1.83;;
61505;SDS011;47366;51.916;4.574;2022-10-16T15:21:46;5.20;;;1.10;;
61505;SDS011;47366;51.916;4.574;2022-10-16T15:24:08;3.38;;;0.63;;
61505;SDS011;47366;51.916;4.574;2022-10-16T15:26:37;5.63;;;1.15;;
61505;SDS011;47366;51.916;4.574;2022-10-16T15:29:02;5.05;;;0.82;;
61505;SDS011;47366;51.916;4.574;2022-10-16T15:31:27;7.85;;;1.30;;
61505;SDS011;47366;51.916;4.574;2022-10-16T15:33:53;3.75;;;0.80;;
61505;SDS011;47366;51.916;4.574;2022-10-16T15:36:33;4.90;;;0.90;;
61505;SDS011;47366;51.916;4.574;2022-10-16T15:39:17;5.20;;;0.80;;
61505;SDS011;47366;51.916;4.574;2022-10-16T15:41:44;6.55;;;1.08;;
61505;SDS011;47366;51.916;4.574;2022-10-16T15:46:44;1.02;;;0.50;;
61505;SDS011;47366;51.916;4.574;2022-10-16T15:49:09;7.40;;;1.02;;
61505;SDS011;47366;51.916;4.574;2022-10-16T15:51:40;4.55;;;0.88;;
61505;SDS011;47366;51.916;4.574;2022-10-16T15:54:06;3.78;;;1.38;;
61505;SDS011;47366;51.916;4.574;2022-10-16T15:56:32;2.45;;;1.02;;
61505;SDS011;47366;51.916;4.574;2022-10-16T15:58:58;3.72;;;1.23;;
61505;SDS011;47366;51.916;4.574;2022-10-16T16:01:26;9.15;;;1.80;;
61505;SDS011;47366;51.916;4.574;2022-10-16T16:03:53;10.88;;;1.60;;
61505;SDS011;47366;51.916;4.574;2022-10-16T16:06:19;5.57;;;1.65;;
61505;SDS011;47366;51.916;4.574;2022-10-16T16:08:44;5.25;;;1.70;;
61505;SDS011;47366;51.916;4.574;2022-10-16T16:11:10;5.45;;;1.98;;
61505;SDS011;47366;51.916;4.574;2022-10-16T16:13:38;9.07;;;2.03;;
61505;SDS011;47366;51.916;4.574;2022-10-16T16:16:06;4.93;;;1.67;;
61505;SDS011;47366;51.916;4.574;2022-10-16T16:18:33;4.75;;;1.88;;
61505;SDS011;47366;51.916;4.574;2022-10-16T16:20:59;9.95;;;2.00;;
61505;SDS011;47366;51.916;4.574;2022-10-16T16:23:24;10.60;;;2.53;;
61505;SDS011;47366;51.916;4.574;2022-10-16T16:28:37;13.10;;;3.88;;
61505;SDS011;47366;51.916;4.574;2022-10-16T16:31:03;14.32;;;4.93;;
61505;SDS011;47366;51.916;4.574;2022-10-16T16:33:29;16.27;;;5.57;;
61505;SDS011;47366;51.916;4.574;2022-10-16T16:35:56;15.32;;;5.00;;
61505;SDS011;47366;51.916;4.574;2022-10-16T16:38:25;18.17;;;4.60;;
61505;SDS011;47366;51.916;4.574;2022-10-16T16:40:51;12.82;;;3.90;;
61505;SDS011;47366;51.916;4.574;2022-10-16T16:43:17;8.10;;;2.80;;
61505;SDS011;47366;51.916;4.574;2022-10-16T16:45:42;7.68;;;2.72;;
61505;SDS011;47366;51.916;4.574;2022-10-16T16:48:08;4.88;;;2.50;;
61505;SDS011;47366;51.916;4.574;2022-10-16T16:50:36;6.60;;;2.63;;
61505;SDS011;47366;51.916;4.574;2022-10-16T16:53:02;4.90;;;2.20;;
61505;SDS011;47366;51.916;4.574;2022-10-16T16:55:27;6.75;;;2.05;;
61505;SDS011;47366;51.916;4.574;2022-10-16T16:57:53;10.45;;;2.50;;
61505;SDS011;47366;51.916;4.574;2022-10-16T17:00:18;4.32;;;2.20;;
61505;SDS011;47366;51.916;4.574;2022-10-16T17:02:43;6.65;;;2.78;;